createdAt,value
2023-03-31T00:01:34.520Z,98813.06
2023-03-31T00:04:36.711Z,98834.84
2023-03-31T00:07:38.887Z,98829.06
2023-03-31T00:10:46.672Z,98826.75
2023-03-31T00:13:49.040Z,98830.84
2023-03-31T00:16:51.369Z,98812.56
2023-03-31T00:19:53.820Z,98810.97
2023-03-31T00:22:57.719Z,98808.53
2023-03-31T00:26:00.407Z,98797.47
2023-03-31T00:29:03.678Z,98810.06
2023-03-31T00:32:06.129Z,98792.16
2023-03-31T00:35:08.940Z,98784.84
2023-03-31T00:38:14.010Z,98796.19
2023-03-31T00:41:16.270Z,98788.47
2023-03-31T00:44:22.846Z,98791.53
2023-03-31T00:47:26.724Z,98785.00
2023-03-31T00:50:36.187Z,98784.38
2023-03-31T00:53:38.453Z,98784.81
2023-03-31T00:56:42.346Z,98783.22
2023-03-31T00:59:48.156Z,98777.50
2023-03-31T01:02:56.226Z,98783.22
2023-03-31T01:06:06.653Z,98778.81
2023-03-31T01:09:10.001Z,98776.44
2023-03-31T01:12:12.662Z,98771.59
2023-03-31T01:15:15.704Z,98757.97
2023-03-31T01:18:21.971Z,98760.41
2023-03-31T01:21:42.724Z,98766.09
2023-03-31T01:24:55.180Z,98763.34
2023-03-31T01:28:08.724Z,98767.44
2023-03-31T01:31:29.642Z,98770.31
2023-03-31T01:34:31.779Z,98763.97
2023-03-31T01:37:39.843Z,98769.50
2023-03-31T01:41:03.455Z,98766.47
2023-03-31T01:44:23.792Z,98766.09
2023-03-31T01:47:40.905Z,98760.19
2023-03-31T01:50:46.657Z,98769.09
2023-03-31T01:54:00.278Z,98767.47
2023-03-31T01:57:09.969Z,98762.22
2023-03-31T02:00:15.729Z,98764.41
2023-03-31T02:03:22.625Z,98775.75
2023-03-31T02:06:29.217Z,98772.09
2023-03-31T02:09:35.737Z,98765.38
2023-03-31T02:12:40.189Z,98781.06
2023-03-31T02:15:44.451Z,98758.56
2023-03-31T02:18:48.263Z,98766.50
2023-03-31T02:21:51.193Z,98777.66
2023-03-31T02:24:54.524Z,98774.16
2023-03-31T02:28:00.463Z,98762.12
2023-03-31T02:31:07.883Z,98755.88
2023-03-31T02:34:10.175Z,98753.59
2023-03-31T02:37:13.130Z,98756.47
2023-03-31T02:40:20.787Z,98754.69
2023-03-31T02:43:23.063Z,98740.72
2023-03-31T02:46:26.011Z,98737.97
2023-03-31T02:49:28.352Z,98744.88
2023-03-31T02:52:59.144Z,98732.06
2023-03-31T02:56:38.149Z,98739.22
2023-03-31T03:00:01.589Z,98743.28
2023-03-31T03:03:18.904Z,98738.97
2023-03-31T03:06:57.564Z,98742.44
2023-03-31T03:10:07.384Z,98738.72
2023-03-31T03:13:23.386Z,98733.63
2023-03-31T03:16:40.624Z,98737.66
2023-03-31T03:19:43.213Z,98742.63
2023-03-31T03:22:45.454Z,98729.09
2023-03-31T03:25:48.047Z,98726.22
2023-03-31T03:28:53.086Z,98722.56
2023-03-31T03:31:55.541Z,98741.13
2023-03-31T03:34:57.732Z,98748.22
2023-03-31T03:38:00.345Z,98743.47
2023-03-31T03:41:02.909Z,98745.22
2023-03-31T03:44:05.755Z,98745.56
2023-03-31T03:47:07.925Z,98749.25
2023-03-31T03:50:12.563Z,98748.84
2023-03-31T03:53:16.299Z,98752.66
2023-03-31T03:56:18.498Z,98753.25
2023-03-31T03:59:20.734Z,98753.88
2023-03-31T04:02:23.949Z,98760.81
2023-03-31T04:05:27.421Z,98758.56
2023-03-31T04:08:29.703Z,98750.22
2023-03-31T04:11:32.001Z,98756.34
2023-03-31T04:14:34.320Z,98747.22
2023-03-31T04:17:37.649Z,98750.66
2023-03-31T04:20:39.961Z,98752.91
2023-03-31T04:23:48.580Z,98747.22
2023-03-31T04:26:51.127Z,98738.91
2023-03-31T04:29:56.631Z,98726.91
2023-03-31T04:33:00.433Z,98723.69
2023-03-31T04:36:07.412Z,98724.47
2023-03-31T04:39:12.872Z,98724.06
2023-03-31T04:42:15.604Z,98724.62
2023-03-31T04:45:18.366Z,98726.88
2023-03-31T04:48:20.956Z,98727.25
2023-03-31T04:51:23.223Z,98730.41
2023-03-31T04:54:25.589Z,98729.81
2023-03-31T04:57:27.908Z,98723.09
2023-03-31T05:00:30.184Z,98717.62
2023-03-31T05:03:32.759Z,98724.59
2023-03-31T05:06:34.989Z,98722.94
2023-03-31T05:09:37.185Z,98716.94
2023-03-31T05:12:39.906Z,98721.47
2023-03-31T05:15:45.022Z,98725.94
2023-03-31T05:18:47.729Z,98715.66
2023-03-31T05:21:49.989Z,98732.28
2023-03-31T05:24:52.239Z,98725.31
2023-03-31T14:03:36.641Z,98086.84
2023-03-31T14:06:49.134Z,98086.84
2023-03-31T14:09:54.055Z,98088.09
2023-03-31T14:13:12.506Z,98079.59
2023-03-31T14:16:14.904Z,98081.37
2023-03-31T14:19:17.090Z,98086.50
2023-03-31T14:22:40.573Z,98069.94
2023-03-31T14:26:17.316Z,98072.25
2023-03-31T14:29:31.426Z,98069.59
2023-03-31T14:32:46.955Z,98052.78
2023-03-31T14:35:58.680Z,98043.72
2023-03-31T14:39:07.428Z,98031.19
2023-03-31T14:42:21.771Z,98022.81
2023-03-31T14:45:25.922Z,98015.06
2023-03-31T14:48:29.938Z,98007.81
2023-03-31T14:51:32.262Z,98006.56
2023-03-31T14:54:37.844Z,98014.06
2023-03-31T14:57:41.410Z,98009.09
2023-03-31T15:00:43.684Z,97982.38
2023-03-31T15:03:47.015Z,98000.59
2023-03-31T15:06:50.692Z,97994.72
2023-03-31T15:09:53.536Z,97994.47
2023-03-31T15:12:55.697Z,97984.25
2023-03-31T15:15:57.870Z,98004.50
2023-03-31T15:19:01.690Z,97995.50
2023-03-31T15:22:19.388Z,97989.09
2023-03-31T15:25:23.724Z,97977.12
2023-03-31T15:28:29.644Z,97978.00
2023-03-31T15:31:32.235Z,97973.19
2023-03-31T15:34:36.006Z,97981.31
2023-03-31T15:37:42.867Z,97967.91
2023-03-31T15:40:49.573Z,97967.47
2023-03-31T15:44:27.393Z,97959.78
2023-03-31T15:47:29.725Z,97946.66
2023-03-31T15:50:33.137Z,97940.75
2023-03-31T15:53:47.033Z,97929.28
2023-03-31T15:56:51.165Z,97930.91
2023-03-31T15:59:57.905Z,97926.44
2023-03-31T16:03:02.039Z,97922.69
2023-03-31T16:06:22.828Z,97920.78
2023-03-31T16:09:39.289Z,97920.00
2023-03-31T16:13:03.385Z,97915.16
2023-03-31T16:16:09.253Z,97918.94
2023-03-31T16:19:11.803Z,97913.84
2023-03-31T16:22:18.960Z,97917.88
2023-03-31T16:25:26.040Z,97904.75
2023-03-31T16:28:33.520Z,97914.38
2023-03-31T16:31:39.438Z,97916.53
2023-03-31T16:34:52.816Z,97914.66
2023-03-31T16:37:54.983Z,97912.22
2023-03-31T16:40:58.129Z,97919.72
2023-03-31T16:44:00.576Z,97927.97
2023-03-31T16:47:02.914Z,97934.66
2023-03-31T16:50:07.671Z,97945.03
2023-03-31T16:53:10.699Z,97945.22
2023-03-31T16:56:13.835Z,97948.72
2023-03-31T16:59:16.383Z,97952.72
2023-03-31T17:02:18.742Z,97951.56
2023-03-31T17:05:21.587Z,97951.03
2023-03-31T17:08:26.299Z,97946.75
2023-03-31T17:11:32.377Z,97956.34
2023-03-31T17:14:36.039Z,97956.34
2023-03-31T17:17:38.466Z,97963.84
2023-03-31T17:20:40.881Z,97956.59
2023-03-31T17:23:43.361Z,97948.06
2023-03-31T17:26:46.014Z,97955.00
2023-03-31T17:29:48.214Z,97948.81
2023-03-31T17:32:51.588Z,97953.63
2023-03-31T17:36:01.128Z,97955.72
2023-03-31T17:39:05.127Z,97944.16
2023-03-31T17:42:08.235Z,97944.16
2023-03-31T17:45:12.154Z,97938.50
2023-03-31T17:48:16.420Z,97933.41
2023-03-31T17:51:19.652Z,97925.66
2023-03-31T17:54:22.077Z,97925.59
2023-03-31T17:57:24.413Z,97929.28
2023-03-31T18:00:26.721Z,97927.66
2023-03-31T18:03:29.588Z,97916.19
2023-03-31T18:06:32.002Z,97927.13
2023-03-31T18:09:34.677Z,97920.37
2023-03-31T18:12:36.954Z,97935.53
2023-03-31T18:15:39.452Z,97944.19
2023-03-31T18:18:42.438Z,97950.47
2023-03-31T18:21:44.806Z,97943.41
2023-03-31T18:24:47.422Z,97938.47
2023-03-31T18:27:50.150Z,97949.63
2023-03-31T18:30:53.318Z,97953.59
2023-03-31T18:33:55.858Z,97943.37
2023-03-31T18:36:58.393Z,97928.69
2023-03-31T18:40:01.610Z,97933.56
2023-03-31T18:43:04.319Z,97935.66
2023-03-31T18:46:07.730Z,97943.25
2023-03-31T18:49:11.356Z,97951.16
2023-03-31T18:52:14.293Z,97952.75
2023-03-31T18:55:16.809Z,97948.59
2023-03-31T18:58:19.320Z,97951.16
2023-03-31T19:01:21.937Z,97951.06
2023-03-31T19:04:24.563Z,97946.91
2023-03-31T19:07:26.773Z,97949.59
2023-03-31T19:10:29.153Z,97956.06
2023-03-31T19:13:32.035Z,97949.94
2023-03-31T19:16:41.556Z,97949.50
2023-03-31T19:19:45.241Z,97959.53
2023-03-31T19:22:50.210Z,97958.66
2023-03-31T19:25:54.593Z,97968.53
2023-03-31T19:28:57.046Z,97967.97
2023-03-31T19:31:59.802Z,97962.72
2023-03-31T19:35:02.422Z,97949.00
2023-03-31T19:38:05.080Z,97962.88
2023-03-31T19:41:07.741Z,97958.16
2023-03-31T19:44:10.299Z,97953.16
2023-03-31T19:47:12.947Z,97957.09
2023-03-31T19:50:15.621Z,97950.75
2023-03-31T19:53:18.791Z,97950.59
2023-03-31T19:56:25.145Z,97946.47
2023-03-31T19:59:27.652Z,97953.81
2023-03-31T20:02:30.394Z,97953.50
2023-03-31T20:05:33.039Z,97951.47
2023-03-31T20:08:36.495Z,97954.41
2023-03-31T20:11:40.016Z,97948.41
2023-03-31T20:14:43.616Z,97949.31
2023-03-31T20:17:47.189Z,97949.03
2023-03-31T20:20:49.788Z,97947.84
2023-03-31T20:23:52.104Z,97945.00
2023-03-31T20:26:54.535Z,97944.53
2023-03-31T20:29:58.016Z,97942.50
2023-03-31T20:33:00.571Z,97940.72
2023-03-31T20:36:08.967Z,97939.16
2023-03-31T20:39:13.235Z,97933.03
2023-03-31T20:42:16.767Z,97924.34
2023-03-31T20:45:19.085Z,97919.84
2023-03-31T20:48:21.429Z,97921.09
2023-03-31T20:51:29.443Z,97911.28
2023-03-31T20:54:32.082Z,97919.72
2023-03-31T20:57:34.332Z,97921.91
2023-03-31T21:00:36.695Z,97910.13
2023-03-31T21:03:39.101Z,97914.53
2023-03-31T21:06:44.600Z,97903.00
2023-03-31T21:09:46.925Z,97896.69
2023-03-31T21:12:49.118Z,97899.13
2023-03-31T21:15:54.432Z,97890.53
2023-03-31T21:18:57.107Z,97888.34
2023-03-31T21:21:59.294Z,97878.66
2023-03-31T21:25:01.535Z,97880.97
2023-03-31T21:28:03.804Z,97873.91
2023-03-31T21:31:08.265Z,97864.81
2023-03-31T21:34:10.937Z,97865.50
2023-03-31T21:37:13.304Z,97857.41
2023-03-31T21:40:16.697Z,97854.53
2023-03-31T21:43:23.604Z,97857.59
2023-03-31T21:46:28.597Z,97862.44
2023-03-31T21:49:30.854Z,97856.06
2023-03-31T21:52:33.348Z,97849.94
2023-03-31T21:55:37.280Z,97851.47
2023-03-31T21:58:39.448Z,97857.13
2023-03-31T22:01:41.787Z,97851.56
2023-03-31T22:04:44.115Z,97855.03
2023-03-31T22:07:46.668Z,97857.44
2023-03-31T22:10:52.307Z,97855.47
2023-03-31T22:13:54.550Z,97865.47
2023-03-31T22:16:57.085Z,97864.19
2023-03-31T22:19:59.326Z,97864.66
2023-03-31T22:23:01.696Z,97872.53
2023-03-31T22:26:04.045Z,97873.69
2023-03-31T22:29:06.425Z,97859.44
2023-03-31T22:32:08.620Z,97867.56
2023-03-31T22:35:11.202Z,97871.50
2023-03-31T22:38:14.026Z,97868.59
2023-03-31T22:41:16.298Z,97856.16
2023-03-31T22:44:18.724Z,97860.41
2023-03-31T22:47:21.009Z,97847.38
2023-03-31T22:50:24.035Z,97842.88
2023-03-31T22:53:26.439Z,97844.97
2023-03-31T22:56:28.662Z,97844.69
2023-03-31T22:59:31.222Z,97838.03
2023-03-31T23:02:33.484Z,97828.37
2023-03-31T23:05:35.949Z,97833.25
2023-03-31T23:08:38.834Z,97833.22
2023-03-31T23:11:41.295Z,97825.44
2023-03-31T23:14:43.488Z,97821.63
2023-03-31T23:17:45.727Z,97826.72
2023-03-31T23:20:48.144Z,97818.19
2023-03-31T23:23:53.629Z,97809.31
2023-03-31T23:26:55.863Z,97810.94
2023-03-31T23:29:58.066Z,97814.75
2023-03-31T23:36:05.063Z,97808.19
2023-03-31T23:39:07.276Z,97814.06
2023-03-31T23:42:10.089Z,97812.59
2023-03-31T23:45:12.270Z,97810.38
2023-03-31T23:48:14.530Z,97812.81
2023-03-31T23:51:16.800Z,97813.37
2023-03-31T23:54:19.452Z,97811.41
2023-03-31T23:57:21.654Z,97805.09
